^^
Station Historical Data
Daily Summary for February 1, 2017 Units:  Metric    English   Both
« Previous Day
Next Day »
Daily Weekly Monthly Yearly Custom
  High: Low: Average:
Temperature: 37.9 °C 20 °C 29.1 °C
Dew Point: 4.4 °C -0.2 °C 1.9 °C
Humidity: 35% 11% 19%
Wind Speed: 17.7km/h 0km/h 7.2km/h
Wind Gust: 19.3km/h - -
Wind- - SW
Pressure: 1008.4 hPa 1005.3 hPa -
Precipitation: 0 mm    
Historical Graphs
 
 
Tabular Data for February 1, 2017
Time Temperature Dew Point Pressure Wind Wind Speed Wind Gust Humidity Rainfall Rate (Hourly) solar Conditions
06:24 20 °C 4.1 °C 1008 hPa Calm     35% 0 mm 0.0 W/m2
06:40 20.5 °C 4.1 °C 1008 hPa SW 6.4 km/h 8 km/h 34% 0 mm 16.0 W/m2
06:54 20.8 °C 4.4 °C 1008 hPa SW 6.4 km/h 8 km/h 34% 0 mm 47.0 W/m2
07:05 20.8 °C 4.4 °C 1008 hPa SW 3.2 km/h 8 km/h 34% 0 mm 60.0 W/m2
07:24 22.1 °C 3.7 °C 1008.4 hPa SW 7.9 km/h 11.3 km/h 30% 0 mm 160.0 W/m2
07:30 22.2 °C 3.8 °C 1008.4 hPa SW 7.9 km/h 11.3 km/h 30% 0 mm 185.0 W/m2
07:35 22.4 °C 3.5 °C 1008.4 hPa SW 7.9 km/h 9.7 km/h 29% 0 mm 206.0 W/m2
07:40 22.6 °C 3.7 °C 1008.4 hPa SW 7.9 km/h 11.3 km/h 29% 0 mm 229.0 W/m2
07:50 23 °C 3.5 °C 1008.4 hPa SW 4.7 km/h 9.7 km/h 28% 0 mm 267.0 W/m2
08:06 23.4 °C 2.8 °C 1008.4 hPa SW 7.9 km/h 11.3 km/h 26% 0 mm 304.0 W/m2
08:15 23.8 °C 2.6 °C 1008.4 hPa SW 9.7 km/h 11.3 km/h 25% 0 mm 343.0 W/m2
08:27 24.3 °C 1.8 °C 1008.4 hPa SW 7.9 km/h 9.7 km/h 23% 0 mm 380.0 W/m2
08:35 25.1 °C 1.2 °C 1008.4 hPa SW 6.4 km/h 9.7 km/h 21% 0 mm 432.0 W/m2
08:48 25.6 °C 1 °C 1008.4 hPa SW 14.3 km/h 14.5 km/h 20% 0 mm 468.0 W/m2
08:51 25.8 °C 0.4 °C 1008.4 hPa SW 9.7 km/h 12.9 km/h 19% 0 mm 487.0 W/m2
08:59 26 °C -0.2 °C 1008.4 hPa SW 9.7 km/h 16.1 km/h 18% 0 mm 504.0 W/m2
09:05 26.2 °C 0 °C 1008.4 hPa SW 11.1 km/h 11.3 km/h 18% 0 mm 522.0 W/m2
09:11 26.5 °C 0.2 °C 1008.4 hPa SW 14.3 km/h 16.1 km/h 18% 0 mm 555.0 W/m2
09:21 26.9 °C 0.6 °C 1008.4 hPa SW 14.3 km/h 16.1 km/h 18% 0 mm 591.0 W/m2
09:31 27.4 °C 0.2 °C 1008.4 hPa SW 13 km/h 16.1 km/h 17% 0 mm 619.0 W/m2
09:48 28 °C -0.2 °C 1008 hPa SW 13 km/h 17.7 km/h 16% 0 mm 654.0 W/m2
10:02 28.8 °C 0.5 °C 1008.4 hPa SW 13 km/h 16.1 km/h 16% 0 mm 700.0 W/m2
10:12 29.3 °C 0.9 °C 1008 hPa SW 14.3 km/h 16.1 km/h 16% 0 mm 728.0 W/m2
10:21 30 °C 0.5 °C 1008 hPa SW 17.7 km/h 17.7 km/h 15% 0 mm 766.0 W/m2
10:43 30.6 °C 1 °C 1008 hPa SW 7.9 km/h 17.7 km/h 15% 0 mm 807.0 W/m2
10:47 30.9 °C 1.3 °C 1008 hPa SW 11.1 km/h 14.5 km/h 15% 0 mm 831.0 W/m2
11:02 31.2 °C 1.5 °C 1008 hPa SW 9.7 km/h 14.5 km/h 15% 0 mm 854.0 W/m2
11:10 31.7 °C 0.9 °C 1007.7 hPa SW 11.1 km/h 14.5 km/h 14% 0 mm 875.0 W/m2
11:21 32.2 °C 1.3 °C 1007.7 hPa Calm   16.1 km/h 14% 0 mm 896.0 W/m2
11:34 32.6 °C 1.6 °C 1007.7 hPa Calm     14% 0 mm 912.0 W/m2
11:49 33.4 °C 1.2 °C 1007.3 hPa SW 6.4 km/h 14.5 km/h 13% 0 mm 937.0 W/m2
11:58 34.1 °C 1.8 °C 1007.3 hPa Calm   11.3 km/h 13% 0 mm 958.0 W/m2
12:19 34.6 °C 2.2 °C 1007 hPa Calm     13% 0 mm 967.0 W/m2
12:35 35.1 °C 2.6 °C 1007 hPa Calm   11.3 km/h 13% 0 mm 984.0 W/m2
12:49 35.4 °C 1.7 °C 1006.7 hPa WSW 4.7 km/h 4.8 km/h 12% 0 mm 986.0 W/m2
13:00 35.9 °C 2.1 °C 1006.7 hPa Calm     12% 0 mm 990.0 W/m2
13:09 36.5 °C 2.5 °C 1006.3 hPa Calm     12% 0 mm 988.0 W/m2
13:24 36.7 °C 2.7 °C 1006.3 hPa Calm   4.8 km/h 12% 0 mm 986.0 W/m2
13:39 37.1 °C 3 °C 1006 hPa West 14.3 km/h 14.5 km/h 12% 0 mm 976.0 W/m2
13:55 37.1 °C 1.8 °C 1006 hPa Calm   4.8 km/h 11% 0 mm 963.0 W/m2
14:10 37.4 °C 2 °C 1005.6 hPa WNW 9.7 km/h 12.9 km/h 11% 0 mm 949.0 W/m2
14:28 37.7 °C 2.2 °C 1005.6 hPa Calm   6.4 km/h 11% 0 mm 926.0 W/m2
14:30 37.9 °C 2.4 °C 1005.3 hPa WNW 11.1 km/h 19.3 km/h 11% 0 mm 919.0 W/m2
Canyon Roadhouse, Fishriver Canyon, Namibia
Compliments of Weather Underground - 1.75 mb